logo tempoitalia

Diretta Meteo Woomera Aerodrome, Australialunedì 31 agosto ore 14:30

Mappa
Sereno 23 °C Sereno 24 Ore: T.min 8 T.max 24
Ponente Nord Km/h 13 Punto di rugiada: 5 °C Umidità: 31% Visibilità: 10 Km
Il sole sorge alle: 06:40 Il sole tramonta alle: 18:06
31 Agosto 2026 14:30 tempo osservato: Sereno Sereno 23 31 1025 vento: Nord N 13
31 Agosto 2026 14:00 tempo osservato: Sereno Sereno 23 31 1026 vento: Nord N/NE 16.7
31 Agosto 2026 13:30 tempo osservato: Sereno Sereno 24 29 1026 vento: Nord N/NE 16.7
31 Agosto 2026 13:00 tempo osservato: Sereno Sereno 23 31 1027 vento: Nord N/NE 14.8
31 Agosto 2026 12:30 tempo osservato: Sereno Sereno 22 35 1027 vento: Nord NE 14.8
31 Agosto 2026 12:00 tempo osservato: Sereno Sereno 22 35 1028 vento: Nord N/NE 16.7
31 Agosto 2026 11:30 tempo osservato: Sereno Sereno 22 35 1028 vento: Nord N/NE 16.7
31 Agosto 2026 11:00 tempo osservato: Sereno Sereno 21 37 1029 vento: Nord NE 16.7
31 Agosto 2026 10:30 tempo osservato: Sereno Sereno 20 37 1029 vento: Nord NE 14.8
31 Agosto 2026 10:00 tempo osservato: Sereno Sereno 19 42 1029 vento: Nord NE 14.8
31 Agosto 2026 09:30 tempo osservato: Sereno Sereno 18 48 1029 vento: Nord E/NE 16.7
31 Agosto 2026 09:00 tempo osservato: Sereno Sereno 16 55 1029 vento: Nord E 16.7
31 Agosto 2026 08:30 tempo osservato: Sereno Sereno 14 58 1029 vento: Nord E 16.7
31 Agosto 2026 08:00 tempo osservato: Sereno Sereno 12 66 1029 vento: Nord E 14.8
31 Agosto 2026 07:30 tempo osservato: Sereno Sereno 11 76 1029 vento: Nord E 16.7
31 Agosto 2026 07:00 tempo osservato: Sereno Sereno 9 81 1029 vento: Nord E 18.5
31 Agosto 2026 06:30 tempo osservato: Sereno Sereno 8 87 1029 vento: Nord E/SE 14.8
31 Agosto 2026 06:00 tempo osservato: Sereno Sereno 8 87 1028 vento: Nord E/SE 14.8
31 Agosto 2026 05:30 tempo osservato: Sereno Sereno 9 81 1028 vento: Nord E/SE 16.7
31 Agosto 2026 05:00 tempo osservato: Sereno Sereno 9 81 1028 vento: Nord E 14.8
31 Agosto 2026 04:30 tempo osservato: Sereno Sereno 9 81 1028 vento: Nord E/SE 14.8
31 Agosto 2026 04:00 tempo osservato: Sereno Sereno 9 81 1028 vento: Nord E/SE 14.8
31 Agosto 2026 03:30 tempo osservato: Sereno Sereno 9 81 1028 vento: Nord E/SE 16.7
31 Agosto 2026 03:00 tempo osservato: Sereno Sereno 10 76 1028 vento: Nord E/SE 16.7
31 Agosto 2026 02:30 tempo osservato: Sereno Sereno 11 71 1029 vento: Nord E/SE 16.7
31 Agosto 2026 02:00 tempo osservato: Sereno Sereno 11 71 1029 vento: Nord E/SE 16.7
31 Agosto 2026 01:30 tempo osservato: Sereno Sereno 11 71 1029 vento: Nord SE 14.8
31 Agosto 2026 01:00 tempo osservato: Sereno Sereno 11 66 1029 vento: Nord E/SE 13
31 Agosto 2026 00:30 tempo osservato: Sereno Sereno 11 66 1029 vento: Nord E/SE 14.8
31 Agosto 2026 00:00 tempo osservato: Sereno Sereno 11 66 1029 vento: Nord E/SE 13
30 Agosto 2026 23:30 tempo osservato: Sereno Sereno 12 62 1030 vento: Nord E/SE 13
30 Agosto 2026 23:00 tempo osservato: Sereno Sereno 12 66 1030 vento: Nord E/SE 13
30 Agosto 2026 22:30 tempo osservato: Sereno Sereno 13 58 1030 vento: Nord E/SE 13
30 Agosto 2026 22:00 tempo osservato: Sereno Sereno 14 54 1030 vento: Nord E/SE 13
30 Agosto 2026 21:30 tempo osservato: Sereno Sereno 15 51 1030 vento: Nord E 7.4
30 Agosto 2026 21:00 tempo osservato: Sereno Sereno 15 51 1030 vento: Nord E 9.3
30 Agosto 2026 20:30 tempo osservato: Sereno Sereno 14 54 1030 vento: Nord E 9.3
30 Agosto 2026 20:00 tempo osservato: Sereno Sereno 16 47 1030 vento: Nord E 9.3
30 Agosto 2026 19:30 tempo osservato: Sereno Sereno 15 51 1030 vento: Nord E/SE 9.3
30 Agosto 2026 19:00 tempo osservato: Sereno Sereno 16 47 1029 vento: Nord E/SE 11.1
30 Agosto 2026 18:30 tempo osservato: Sereno Sereno 17 45 1029 vento: Nord SE 14.8
30 Agosto 2026 18:00 tempo osservato: Sereno Sereno 18 39 1029 vento: Nord SE 13
30 Agosto 2026 17:30 tempo osservato: Sereno Sereno 20 32 1029 vento: Nord E/SE 14.8
30 Agosto 2026 17:00 tempo osservato: Sereno Sereno 20 30 1028 vento: Nord SE 16.7
30 Agosto 2026 16:30 tempo osservato: Sereno Sereno 21 28 1028 vento: Nord SE 20.3
30 Agosto 2026 16:00 tempo osservato: Sereno Sereno 21 24 1029 vento: Nord E/SE 18.5
30 Agosto 2026 15:30 tempo osservato: Sereno Sereno 22 24 1029 vento: Nord E/SE 20.3